createdAt,value
2023-12-19T00:02:06.329Z,2.20
2023-12-19T00:04:37.501Z,2.00
2023-12-19T00:07:04.880Z,1.60
2023-12-19T00:09:32.087Z,2.30
2023-12-19T00:11:59.333Z,0.90
2023-12-19T00:14:26.562Z,1.20
2023-12-19T00:16:53.623Z,2.90
2023-12-19T00:19:20.941Z,1.30
2023-12-19T00:21:48.228Z,1.70
2023-12-19T00:24:15.465Z,1.50
2023-12-19T00:26:42.529Z,2.40
2023-12-19T00:29:10.141Z,2.00
2023-12-19T00:31:37.398Z,2.50
2023-12-19T00:34:04.644Z,1.30
2023-12-19T00:36:32.279Z,1.30
2023-12-19T00:38:59.358Z,0.90
2023-12-19T00:41:26.646Z,1.20
2023-12-19T00:43:53.774Z,1.70
2023-12-19T00:46:20.867Z,1.50
2023-12-19T00:48:48.318Z,1.80
2023-12-19T00:51:15.539Z,1.00
2023-12-19T00:53:42.693Z,0.80
2023-12-19T00:56:10.747Z,0.90
2023-12-19T00:58:38.592Z,1.90
2023-12-19T01:01:07.341Z,1.00
2023-12-19T01:03:35.562Z,2.10
2023-12-19T01:06:03.911Z,1.40
2023-12-19T01:08:31.899Z,1.70
2023-12-19T01:10:59.023Z,2.20
2023-12-19T01:13:26.259Z,1.60
2023-12-19T01:15:53.378Z,1.50
2023-12-19T01:18:20.612Z,1.80
2023-12-19T01:20:49.447Z,1.20
2023-12-19T01:23:16.752Z,2.00
2023-12-19T01:25:44.020Z,1.70
2023-12-19T01:28:12.624Z,1.20
2023-12-19T01:30:41.586Z,1.90
2023-12-19T01:33:09.818Z,1.70
2023-12-19T01:35:37.277Z,1.80
2023-12-19T01:38:04.627Z,1.40
2023-12-19T01:40:33.194Z,1.00
2023-12-19T01:43:00.827Z,1.60
2023-12-19T01:45:28.822Z,0.90
2023-12-19T01:47:56.190Z,2.20
2023-12-19T01:50:24.303Z,1.60
2023-12-19T01:52:55.870Z,1.40
2023-12-19T01:55:25.090Z,1.30
2023-12-19T01:57:52.253Z,0.70
2023-12-19T02:00:19.458Z,1.80
2023-12-19T02:02:46.927Z,1.40
2023-12-19T02:05:17.135Z,1.20
2023-12-19T02:07:44.709Z,2.20
2023-12-19T02:10:12.244Z,1.30
2023-12-19T02:12:39.830Z,0.90
2023-12-19T02:15:07.479Z,0.90
2023-12-19T02:17:34.851Z,1.00
2023-12-19T02:20:02.182Z,2.20
2023-12-19T02:22:31.219Z,1.70
2023-12-19T02:24:59.218Z,1.80
2023-12-19T02:27:26.748Z,1.50
2023-12-19T02:29:53.991Z,1.30
2023-12-19T02:32:21.312Z,2.40
2023-12-19T02:34:50.000Z,0.80
2023-12-19T02:37:17.244Z,0.80
2023-12-19T02:39:44.319Z,1.00
2023-12-19T02:42:11.429Z,1.10
2023-12-19T02:44:38.597Z,1.90
2023-12-19T02:47:05.675Z,1.30
2023-12-19T02:49:32.903Z,1.50
2023-12-19T02:52:00.301Z,1.10
2023-12-19T02:54:27.747Z,1.10
2023-12-19T02:56:54.829Z,0.70
2023-12-19T02:59:21.813Z,1.80
2023-12-19T03:01:49.242Z,2.00
2023-12-19T03:04:16.620Z,1.70
2023-12-19T03:06:44.069Z,1.30
2023-12-19T03:09:11.203Z,2.00
2023-12-19T03:11:40.878Z,1.70
2023-12-19T03:14:07.943Z,3.20
2023-12-19T03:16:35.091Z,1.80
2023-12-19T03:19:02.210Z,1.00
2023-12-19T03:21:29.516Z,1.70
2023-12-19T03:23:56.700Z,2.00
2023-12-19T03:26:23.814Z,1.50
2023-12-19T03:28:52.424Z,1.60
2023-12-19T03:31:20.494Z,1.80
2023-12-19T03:33:48.241Z,0.90
2023-12-19T03:36:15.411Z,1.30
2023-12-19T03:38:43.326Z,0.90
2023-12-19T03:41:10.337Z,2.30
2023-12-19T03:43:37.679Z,1.20
2023-12-19T03:46:09.151Z,1.30
2023-12-19T03:48:36.650Z,1.50
2023-12-19T03:51:04.701Z,1.70
2023-12-19T03:53:31.710Z,1.70
2023-12-19T03:55:58.651Z,1.60
2023-12-19T03:58:25.749Z,1.40
2023-12-19T04:00:52.835Z,1.50
2023-12-19T04:03:20.282Z,1.80
2023-12-19T04:05:47.337Z,1.40
2023-12-19T04:08:14.533Z,1.60
2023-12-19T04:10:41.585Z,2.50
2023-12-19T04:13:08.763Z,1.70
2023-12-19T04:15:36.003Z,2.00
2023-12-19T04:18:03.086Z,1.40
2023-12-19T04:20:30.663Z,3.50
2023-12-19T04:22:57.943Z,1.80
2023-12-19T04:25:25.092Z,2.70
2023-12-19T04:27:52.186Z,1.90
2023-12-19T04:30:20.311Z,1.40
2023-12-19T04:32:48.047Z,1.40
2023-12-19T04:35:15.462Z,2.30
2023-12-19T04:37:43.087Z,1.60
2023-12-19T04:40:10.571Z,2.20
2023-12-19T04:42:37.739Z,1.90
2023-12-19T04:45:05.583Z,1.70
2023-12-19T04:47:33.026Z,3.30
2023-12-19T04:50:00.144Z,2.20
2023-12-19T04:52:27.436Z,1.60
2023-12-19T04:54:54.525Z,1.60
2023-12-19T04:57:21.867Z,1.50
2023-12-19T04:59:49.066Z,2.10
2023-12-19T05:02:16.127Z,3.70
2023-12-19T05:04:43.174Z,3.90
2023-12-19T05:07:10.681Z,2.60
2023-12-19T05:09:37.805Z,3.00
2023-12-19T05:12:05.639Z,2.30
2023-12-19T05:14:33.211Z,1.90
2023-12-19T05:17:01.418Z,1.90
2023-12-19T05:19:28.828Z,4.20
2023-12-19T05:21:56.171Z,4.00
2023-12-19T05:24:23.446Z,2.60
2023-12-19T05:26:50.595Z,3.70
2023-12-19T05:29:17.829Z,3.60
2023-12-19T05:31:45.026Z,2.80
2023-12-19T05:34:12.385Z,4.20
2023-12-19T05:36:47.334Z,2.50
2023-12-19T05:39:14.648Z,4.00
2023-12-19T05:41:41.685Z,4.10
2023-12-19T05:44:09.243Z,4.80
2023-12-19T05:46:36.466Z,4.60
2023-12-19T05:49:04.380Z,5.10
2023-12-19T05:51:31.711Z,3.80
2023-12-19T05:54:01.388Z,5.40
2023-12-19T05:56:28.891Z,4.10
2023-12-19T05:58:55.998Z,5.10
2023-12-19T06:01:23.307Z,4.80
2023-12-19T06:03:50.492Z,5.70
2023-12-19T06:06:17.974Z,5.90
2023-12-19T06:08:45.225Z,5.40
2023-12-19T06:11:12.465Z,5.60
2023-12-19T06:13:39.645Z,5.10
2023-12-19T06:16:07.305Z,5.10
2023-12-19T06:18:34.531Z,5.70
2023-12-19T06:21:02.333Z,6.70
2023-12-19T06:23:29.869Z,6.80
2023-12-19T06:25:57.330Z,6.40
2023-12-19T06:28:24.502Z,6.90
2023-12-19T06:30:52.045Z,4.40
2023-12-19T06:33:19.213Z,4.50
2023-12-19T06:35:50.691Z,5.00
2023-12-19T06:38:17.909Z,5.50
2023-12-19T06:40:45.024Z,6.60
2023-12-19T06:43:13.347Z,6.00
2023-12-19T06:45:40.656Z,8.40
2023-12-19T06:48:08.126Z,5.10
2023-12-19T06:50:35.344Z,4.50
2023-12-19T06:53:03.727Z,8.00
2023-12-19T06:55:32.211Z,5.10
2023-12-19T06:57:59.543Z,5.60
2023-12-19T07:00:29.631Z,6.10
2023-12-19T07:02:57.068Z,6.50
2023-12-19T07:05:24.462Z,6.20
2023-12-19T07:07:52.971Z,6.30
2023-12-19T07:10:20.419Z,6.60
2023-12-19T07:12:47.781Z,5.40
2023-12-19T07:15:16.114Z,6.10
2023-12-19T07:17:44.557Z,5.40
2023-12-19T07:20:12.434Z,7.70
2023-12-19T07:22:39.593Z,7.20
2023-12-19T07:25:07.301Z,6.80
2023-12-19T07:27:37.991Z,6.30
2023-12-19T07:30:07.244Z,6.00
2023-12-19T07:32:35.169Z,6.10
2023-12-19T07:35:02.467Z,5.70
2023-12-19T07:37:29.805Z,6.60
2023-12-19T07:39:56.909Z,8.00
2023-12-19T07:42:24.377Z,6.60
2023-12-19T07:44:53.038Z,8.10
2023-12-19T07:47:20.348Z,6.20
2023-12-19T07:49:47.698Z,5.20
2023-12-19T07:52:15.512Z,6.70
2023-12-19T07:54:42.546Z,5.30
2023-12-19T07:57:09.801Z,6.80
2023-12-19T07:59:36.938Z,7.80
2023-12-19T08:02:04.467Z,9.80
2023-12-19T08:04:31.821Z,6.00
2023-12-19T08:06:59.068Z,7.50
2023-12-19T08:09:27.705Z,5.70
2023-12-19T08:11:57.056Z,6.90
2023-12-19T08:16:51.501Z,7.30
2023-12-19T08:19:18.817Z,9.40
2023-12-19T08:21:52.925Z,9.20
2023-12-19T08:24:20.074Z,8.90
2023-12-19T08:26:49.078Z,8.20
2023-12-19T08:29:16.610Z,7.60
2023-12-19T08:31:45.381Z,7.30
2023-12-19T08:34:12.685Z,7.40
2023-12-19T08:36:40.623Z,8.90
2023-12-19T08:39:10.382Z,8.10
2023-12-19T08:41:40.518Z,7.00
2023-12-19T08:44:07.713Z,8.10
2023-12-19T08:46:35.085Z,7.90
2023-12-19T08:49:03.816Z,7.20
2023-12-19T08:51:31.755Z,9.10
2023-12-19T08:53:59.077Z,7.10
2023-12-19T08:56:26.222Z,9.10
2023-12-19T08:58:53.687Z,8.10
2023-12-19T09:01:20.939Z,8.10
2023-12-19T09:03:48.344Z,11.30
2023-12-19T09:06:15.820Z,9.00
2023-12-19T09:08:43.095Z,8.10
2023-12-19T09:11:10.069Z,8.40
2023-12-19T09:13:39.880Z,8.90
2023-12-19T09:16:08.365Z,7.60
2023-12-19T09:18:35.963Z,8.50
2023-12-19T09:21:03.376Z,10.90
2023-12-19T09:23:30.792Z,10.20
2023-12-19T09:25:57.864Z,8.60
2023-12-19T09:28:25.530Z,9.80
2023-12-19T09:30:52.808Z,8.80
2023-12-19T09:33:20.385Z,7.30
2023-12-19T09:35:47.644Z,9.80
2023-12-19T09:38:14.770Z,11.90
2023-12-19T09:40:41.967Z,10.60
2023-12-19T09:43:09.474Z,8.40
2023-12-19T09:45:37.104Z,8.00
2023-12-19T09:48:05.454Z,7.80
2023-12-19T09:50:32.604Z,9.00
2023-12-19T09:53:00.958Z,7.70
2023-12-19T09:55:29.623Z,8.10
2023-12-19T09:57:56.827Z,10.80
2023-12-19T10:00:24.705Z,9.90
2023-12-19T10:02:53.648Z,9.90
2023-12-19T10:05:20.827Z,9.40
2023-12-19T10:07:48.808Z,10.20
2023-12-19T10:10:16.705Z,10.20
2023-12-19T10:12:56.859Z,9.50
2023-12-19T10:15:27.366Z,10.20
2023-12-19T10:18:13.206Z,12.20
2023-12-19T10:20:41.913Z,12.10
2023-12-19T10:23:10.712Z,12.50
2023-12-19T10:25:45.596Z,12.10
2023-12-19T10:28:15.804Z,9.50
2023-12-19T10:30:45.254Z,13.30
2023-12-19T10:33:16.957Z,11.60
2023-12-19T10:35:46.449Z,13.70
2023-12-19T10:38:14.112Z,13.30
2023-12-19T10:40:41.859Z,17.60
2023-12-19T10:43:09.258Z,11.70
2023-12-19T10:53:21.666Z,12.40
2023-12-19T10:55:48.789Z,13.10
2023-12-19T10:58:19.320Z,15.90
2023-12-19T11:00:46.534Z,17.40
2023-12-19T11:03:17.924Z,15.30
2023-12-19T11:05:49.313Z,12.00
2023-12-19T11:08:18.632Z,12.00
2023-12-19T11:11:07.134Z,12.60
2023-12-19T11:13:34.628Z,13.30
2023-12-19T11:16:26.305Z,14.50
2023-12-19T11:19:49.124Z,15.80
2023-12-19T11:22:27.105Z,15.40
2023-12-19T11:25:04.397Z,12.90
2023-12-19T11:27:36.885Z,13.60
2023-12-19T11:30:04.609Z,11.70
2023-12-19T11:32:31.983Z,11.70
2023-12-19T11:35:08.525Z,11.50
2023-12-19T11:37:36.059Z,12.40
2023-12-19T11:40:05.226Z,14.80
2023-12-19T11:42:42.012Z,14.90
2023-12-19T11:45:18.701Z,15.10
2023-12-19T11:47:46.850Z,10.30
2023-12-19T11:50:45.699Z,13.20
2023-12-19T11:53:12.941Z,10.10
2023-12-19T11:55:39.969Z,11.00
2023-12-19T11:58:14.008Z,14.50
2023-12-19T12:00:44.773Z,13.60
2023-12-19T12:03:13.431Z,13.20
2023-12-19T12:05:41.467Z,14.90
2023-12-19T12:08:16.930Z,13.80
2023-12-19T12:10:45.808Z,13.00
2023-12-19T12:13:13.289Z,10.90
2023-12-19T12:15:42.464Z,11.10
2023-12-19T12:18:11.937Z,13.10
2023-12-19T12:20:39.311Z,12.80
2023-12-19T12:23:06.431Z,14.00
2023-12-19T12:25:33.954Z,13.60
2023-12-19T12:28:08.955Z,12.20
2023-12-19T12:30:37.289Z,13.10
2023-12-19T12:33:05.095Z,14.30
2023-12-19T12:35:36.700Z,13.00
2023-12-19T12:38:09.053Z,10.70
2023-12-19T12:40:36.237Z,10.80
2023-12-19T12:43:29.003Z,11.20
2023-12-19T12:46:15.082Z,10.60
2023-12-19T12:48:46.024Z,14.00
2023-12-19T12:51:13.828Z,13.10
2023-12-19T12:53:40.959Z,12.00
2023-12-19T12:56:15.768Z,12.30
2023-12-19T12:58:43.132Z,10.40
2023-12-19T13:01:10.676Z,13.60
2023-12-19T13:03:38.518Z,9.30
2023-12-19T13:06:06.388Z,9.70
2023-12-19T13:08:34.478Z,8.80
2023-12-19T13:11:09.629Z,9.10
2023-12-19T13:13:37.339Z,11.20
2023-12-19T13:16:05.093Z,9.00
2023-12-19T13:18:32.484Z,11.30
2023-12-19T13:20:59.661Z,8.70
2023-12-19T13:23:26.814Z,9.40
2023-12-19T13:25:55.280Z,10.20
2023-12-19T13:28:22.369Z,9.70
2023-12-19T13:30:50.470Z,9.60
2023-12-19T13:33:17.863Z,11.80
2023-12-19T13:35:45.416Z,10.70
2023-12-19T13:38:12.528Z,9.80
2023-12-19T13:40:39.788Z,10.90
2023-12-19T13:43:07.430Z,10.00
2023-12-19T13:45:35.529Z,7.30
2023-12-19T13:48:04.262Z,7.40
2023-12-19T13:50:31.713Z,10.50
2023-12-19T13:52:59.037Z,11.60
2023-12-19T13:55:26.320Z,10.60
2023-12-19T13:57:53.630Z,10.20
2023-12-19T14:00:29.377Z,12.90
2023-12-19T14:03:00.024Z,9.90
2023-12-19T14:05:28.542Z,11.50
2023-12-19T14:08:00.983Z,8.70
2023-12-19T14:10:30.926Z,8.30
2023-12-19T14:13:02.541Z,9.90
2023-12-19T14:15:30.410Z,8.90
2023-12-19T14:17:57.959Z,9.60
2023-12-19T14:20:27.285Z,9.20
2023-12-19T14:25:21.662Z,8.80
2023-12-19T14:27:49.547Z,10.60
2023-12-19T14:30:17.040Z,8.20
2023-12-19T14:32:44.251Z,6.10
2023-12-19T14:35:12.468Z,7.00
2023-12-19T14:37:40.075Z,6.80
2023-12-19T14:40:08.610Z,8.50
2023-12-19T14:42:37.157Z,10.70
2023-12-19T14:45:04.631Z,10.90
2023-12-19T14:47:32.068Z,11.30
2023-12-19T14:49:59.380Z,11.70
2023-12-19T14:52:27.356Z,10.90
2023-12-19T14:54:54.660Z,19.00
2023-12-19T14:57:26.400Z,18.70
2023-12-19T14:59:54.294Z,17.60
2023-12-19T15:02:22.322Z,19.90
2023-12-19T15:04:49.763Z,25.80
2023-12-19T15:07:17.179Z,37.60
2023-12-19T15:09:44.320Z,13.40
2023-12-19T15:12:11.743Z,20.70
2023-12-19T15:14:38.940Z,15.20
2023-12-19T15:17:06.145Z,14.90
2023-12-19T15:19:34.105Z,13.10
2023-12-19T15:22:01.884Z,13.40
2023-12-19T15:24:29.693Z,11.10
2023-12-19T15:26:58.663Z,13.10
2023-12-19T15:29:26.262Z,11.30
2023-12-19T15:31:53.759Z,9.40
2023-12-19T15:34:21.364Z,23.30
2023-12-19T15:36:50.840Z,30.30
2023-12-19T15:39:19.378Z,32.80
2023-12-19T15:41:46.627Z,40.00
2023-12-19T15:44:14.094Z,16.50
2023-12-19T15:54:24.320Z,9.10
2023-12-19T15:56:51.773Z,11.40
2023-12-19T15:59:19.418Z,14.80
2023-12-19T16:01:48.592Z,18.10
2023-12-19T16:04:16.106Z,10.50
2023-12-19T16:06:43.527Z,16.70
2023-12-19T16:09:10.997Z,14.90
2023-12-19T16:11:38.348Z,13.70
2023-12-19T16:14:06.084Z,13.00
2023-12-19T16:16:36.752Z,11.50
2023-12-19T16:19:06.226Z,16.50
2023-12-19T16:21:33.372Z,26.60
2023-12-19T16:24:04.021Z,22.00
2023-12-19T16:26:33.276Z,22.30
2023-12-19T16:29:02.164Z,10.60
2023-12-19T16:31:29.945Z,10.70
2023-12-19T16:33:57.511Z,8.10
2023-12-19T16:36:25.073Z,9.20
2023-12-19T16:38:53.033Z,8.50
2023-12-19T16:41:23.521Z,10.70
2023-12-19T16:43:51.679Z,18.00
2023-12-19T16:46:23.099Z,19.70
2023-12-19T16:48:54.152Z,12.80
2023-12-19T16:51:22.007Z,9.50
2023-12-19T16:53:49.312Z,10.00
2023-12-19T16:56:16.641Z,9.00
2023-12-19T16:58:44.715Z,10.80
2023-12-19T17:01:15.392Z,11.20
2023-12-19T17:03:43.578Z,15.30
2023-12-19T17:06:11.232Z,26.00
2023-12-19T17:08:38.827Z,19.70
2023-12-19T17:11:08.855Z,17.30
2023-12-19T17:13:36.824Z,12.10
2023-12-19T17:16:04.654Z,18.50
2023-12-19T17:18:32.540Z,17.80
2023-12-19T17:20:59.821Z,20.50
2023-12-19T17:23:36.003Z,14.10
2023-12-19T17:26:07.761Z,11.00
2023-12-19T17:28:34.938Z,11.00
2023-12-19T17:31:02.903Z,10.40
2023-12-19T17:33:30.432Z,10.10
2023-12-19T17:35:58.229Z,9.10
2023-12-19T17:38:25.480Z,11.80
2023-12-19T17:40:52.661Z,12.10
2023-12-19T17:43:19.916Z,11.90
2023-12-19T17:45:47.286Z,16.10
2023-12-19T17:48:14.725Z,20.90
2023-12-19T17:50:42.169Z,13.80
2023-12-19T17:53:09.425Z,9.90
2023-12-19T17:55:36.567Z,6.40
2023-12-19T17:58:03.854Z,6.30
2023-12-19T18:00:31.129Z,7.20
2023-12-19T18:02:58.294Z,6.40
2023-12-19T18:05:27.008Z,9.90
2023-12-19T18:07:54.477Z,9.00
2023-12-19T18:10:21.748Z,10.00
2023-12-19T18:12:49.369Z,11.40
2023-12-19T18:15:16.800Z,11.80
2023-12-19T18:17:44.054Z,17.60
2023-12-19T18:20:11.714Z,19.70
2023-12-19T18:22:38.864Z,15.90
2023-12-19T18:25:07.469Z,11.80
2023-12-19T18:27:34.685Z,10.90
2023-12-19T18:30:04.846Z,7.70
2023-12-19T18:32:34.510Z,6.70
2023-12-19T18:35:02.042Z,7.30
2023-12-19T18:37:29.333Z,7.00
2023-12-19T18:39:56.529Z,7.50
2023-12-19T18:42:23.759Z,8.80
2023-12-19T18:44:50.907Z,8.60
2023-12-19T18:47:18.214Z,12.40
2023-12-19T18:49:45.427Z,11.60
2023-12-19T18:52:12.861Z,12.80
2023-12-19T18:54:40.037Z,10.20
2023-12-19T18:57:07.121Z,12.00
2023-12-19T18:59:35.012Z,11.50
2023-12-19T19:02:02.299Z,18.40
2023-12-19T19:04:29.667Z,26.90
2023-12-19T19:06:57.751Z,20.50
2023-12-19T19:09:24.958Z,8.10
2023-12-19T19:11:52.166Z,10.80
2023-12-19T19:14:20.046Z,9.10
2023-12-19T19:16:47.400Z,12.00
2023-12-19T19:19:14.543Z,14.40
2023-12-19T19:21:41.873Z,12.50
2023-12-19T19:24:09.201Z,17.00
2023-12-19T19:26:38.116Z,14.40
2023-12-19T19:29:08.424Z,12.90
2023-12-19T19:31:35.636Z,12.40
2023-12-19T19:34:03.972Z,13.00
2023-12-19T19:36:33.856Z,10.30
2023-12-19T19:39:01.367Z,12.50
2023-12-19T19:41:28.389Z,13.40
2023-12-19T19:43:56.531Z,9.10
2023-12-19T19:46:24.005Z,8.40
2023-12-19T19:48:52.854Z,10.90
2023-12-19T19:51:22.237Z,9.80
2023-12-19T19:56:17.630Z,10.30
2023-12-19T19:58:45.047Z,12.70
2023-12-19T20:01:12.343Z,11.30
2023-12-19T20:03:41.014Z,11.10
2023-12-19T20:06:08.370Z,11.10
2023-12-19T20:08:35.879Z,11.90
2023-12-19T20:11:03.104Z,12.00
2023-12-19T20:15:36.265Z,11.20
2023-12-19T20:18:04.348Z,10.60
2023-12-19T20:20:32.307Z,11.50
2023-12-19T20:23:00.803Z,10.80
2023-12-19T20:25:27.839Z,10.80
2023-12-19T20:27:54.896Z,8.00
2023-12-19T20:30:22.349Z,9.70
2023-12-19T20:32:50.051Z,7.70
2023-12-19T20:35:17.558Z,8.90
2023-12-19T20:37:45.048Z,9.50
2023-12-19T20:40:13.282Z,11.70
2023-12-19T20:42:40.783Z,9.30
2023-12-19T20:45:09.696Z,11.20
2023-12-19T20:47:36.852Z,11.70
2023-12-19T20:50:04.356Z,10.50
2023-12-19T20:52:33.307Z,9.50
2023-12-19T20:55:05.103Z,10.00
2023-12-19T20:57:32.529Z,10.70
2023-12-19T21:00:04.811Z,8.90
2023-12-19T21:02:32.120Z,11.40
2023-12-19T21:04:59.851Z,9.90
2023-12-19T21:07:26.945Z,10.70
2023-12-19T21:09:54.121Z,8.80
2023-12-19T21:12:21.434Z,9.00
2023-12-19T21:14:48.681Z,9.70
2023-12-19T21:17:16.171Z,8.10
2023-12-19T21:19:43.450Z,8.90
2023-12-19T21:22:13.764Z,7.70
2023-12-19T21:24:41.101Z,7.80
2023-12-19T21:27:09.122Z,9.50
2023-12-19T21:29:36.361Z,10.50
2023-12-19T21:32:04.287Z,8.60
2023-12-19T21:34:31.893Z,8.10
2023-12-19T21:36:59.301Z,9.00
2023-12-19T21:39:26.509Z,9.50
2023-12-19T21:41:53.893Z,10.70
2023-12-19T21:44:20.875Z,10.70
2023-12-19T21:46:48.058Z,11.00
2023-12-19T21:49:15.313Z,9.30
2023-12-19T21:51:42.559Z,10.60
2023-12-19T21:54:09.778Z,12.80
2023-12-19T21:56:38.359Z,9.00
2023-12-19T21:59:06.130Z,10.70
2023-12-19T22:01:33.985Z,9.10
2023-12-19T22:04:02.375Z,8.60
2023-12-19T22:06:30.240Z,9.40
2023-12-19T22:08:57.566Z,6.40
2023-12-19T22:11:24.675Z,6.40
2023-12-19T22:13:54.607Z,8.10
2023-12-19T22:16:22.181Z,9.40
2023-12-19T22:18:49.720Z,7.80
2023-12-19T22:21:21.256Z,7.10
2023-12-19T22:23:48.424Z,9.80
2023-12-19T22:26:15.776Z,9.20
2023-12-19T22:28:42.899Z,8.60
2023-12-19T22:31:10.520Z,9.30
2023-12-19T22:33:38.286Z,9.00
2023-12-19T22:36:06.501Z,9.50
2023-12-19T22:38:33.865Z,9.00
2023-12-19T22:41:01.120Z,9.20
2023-12-19T22:43:28.762Z,8.90
2023-12-19T22:45:56.300Z,9.80
2023-12-19T22:48:23.582Z,8.40
2023-12-19T22:50:50.578Z,8.10
2023-12-19T22:53:17.867Z,9.80
2023-12-19T22:55:47.730Z,7.50
2023-12-19T22:58:15.959Z,10.40
2023-12-19T23:00:43.692Z,8.20
2023-12-19T23:03:12.541Z,10.30
2023-12-19T23:05:39.876Z,9.90
2023-12-19T23:08:07.697Z,10.20
2023-12-19T23:10:38.302Z,8.10
2023-12-19T23:13:06.405Z,8.60
2023-12-19T23:15:35.140Z,8.90
2023-12-19T23:18:03.277Z,8.30
2023-12-19T23:20:31.035Z,8.40
2023-12-19T23:22:58.220Z,8.20
2023-12-19T23:25:25.762Z,7.80
2023-12-19T23:27:55.165Z,8.40
2023-12-19T23:30:22.738Z,6.50
2023-12-19T23:32:50.576Z,5.60
2023-12-19T23:35:18.079Z,5.90
2023-12-19T23:37:45.470Z,6.60
2023-12-19T23:40:13.591Z,6.50
2023-12-19T23:42:41.017Z,8.20
2023-12-19T23:45:08.818Z,9.10
2023-12-19T23:47:36.071Z,7.30
2023-12-19T23:50:03.548Z,11.70
2023-12-19T23:52:30.990Z,7.80
2023-12-19T23:54:58.357Z,9.90
2023-12-19T23:57:25.658Z,8.80
2023-12-19T23:59:52.920Z,7.90
